Time;durP1;ratioP1;P1;durP2;ratioP2;P2;SDS_P1;SDS_P2;PMS_P1;PMS_P2;Temp;Humidity;BMP_temperature;BMP_pressure;BME280_temperature;BME280_humidity;BME280_pressure;Samples;Min_cycle;Max_cycle;Signal;HPM_P1;HPM_P2
2022/06/25 00:01:17;;;;;;;3.85;2.97;;;;;;;;;;5072535;28;20427;-73
2022/06/25 00:03:43;;;;;;;4.95;2.85;;;;;;;;;;5073672;28;20104;-73
2022/06/25 00:06:09;;;;;;;4.38;3.10;;;;;;;;;;5076538;28;20513;-73
2022/06/25 00:08:35;;;;;;;3.25;2.95;;;;;;;;;;5076514;28;20025;-72
2022/06/25 00:11:00;;;;;;;3.90;2.75;;;;;;;;;;5076215;28;20028;-72
2022/06/25 00:13:25;;;;;;;3.72;2.90;;;;;;;;;;5076268;28;20020;-72
2022/06/25 00:15:51;;;;;;;7.22;3.38;;;;;;;;;;5076187;28;20029;-73
2022/06/25 00:18:16;;;;;;;3.97;2.88;;;;;;;;;;5058321;28;20043;-73
2022/06/25 00:20:42;;;;;;;5.75;3.38;;;;;;;;;;5076082;28;20021;-73
2022/06/25 00:23:07;;;;;;;6.18;2.60;;;;;;;;;;5076115;28;20027;-73
2022/06/25 00:25:33;;;;;;;4.13;2.90;;;;;;;;;;5075817;28;20016;-72
2022/06/25 00:27:58;;;;;;;3.55;2.65;;;;;;;;;;5075880;28;20046;-72
2022/06/25 00:30:23;;;;;;;3.47;3.17;;;;;;;;;;5075760;28;20123;-73
2022/06/25 00:32:49;;;;;;;2.95;2.70;;;;;;;;;;5075993;28;20024;-73
2022/06/25 00:35:14;;;;;;;3.38;2.45;;;;;;;;;;5075692;28;20456;-73
2022/06/25 00:37:39;;;;;;;4.85;3.00;;;;;;;;;;5075854;28;20029;-73
2022/06/25 00:40:05;;;;;;;2.85;2.65;;;;;;;;;;5075991;28;20028;-74
2022/06/25 00:42:30;;;;;;;4.03;2.88;;;;;;;;;;5075994;28;20028;-73
2022/06/25 00:44:56;;;;;;;5.10;3.10;;;;;;;;;;5076041;28;20074;-73
2022/06/25 00:47:21;;;;;;;4.23;3.43;;;;;;;;;;5075935;28;20085;-73
2022/06/25 00:49:46;;;;;;;3.92;3.50;;;;;;;;;;5075723;28;20591;-73
2022/06/25 00:52:16;;;;;;;7.05;3.20;;;;;;;;;;5075717;28;20063;-72
2022/06/25 00:54:44;;;;;;;7.70;3.67;;;;;;;;;;5075686;28;20051;-73
2022/06/25 00:57:12;;;;;;;4.45;3.47;;;;;;;;;;5075728;28;20031;-72
2022/06/25 00:59:41;;;;;;;7.18;4.15;;;;;;;;;;5075344;28;20483;-72
2022/06/25 01:02:07;;;;;;;4.75;3.50;;;;;;;;;;5075427;28;20021;-73
2022/06/25 01:04:33;;;;;;;6.72;3.75;;;;;;;;;;5075526;28;20044;-73
2022/06/25 01:06:59;;;;;;;4.93;3.30;;;;;;;;;;5075664;28;20025;-73
2022/06/25 01:09:26;;;;;;;8.32;4.28;;;;;;;;;;5075665;28;20032;-72
2022/06/25 01:11:51;;;;;;;6.18;3.70;;;;;;;;;;5076054;28;20102;-73
2022/06/25 01:14:16;;;;;;;5.13;3.75;;;;;;;;;;5075015;28;20032;-73
2022/06/25 01:16:42;;;;;;;7.30;3.43;;;;;;;;;;5074817;28;20094;-72
2022/06/25 01:19:08;;;;;;;5.25;3.75;;;;;;;;;;5075279;28;20273;-73
2022/06/25 01:21:35;;;;;;;6.35;3.60;;;;;;;;;;5075068;28;20036;-73
2022/06/25 01:24:01;;;;;;;5.05;3.97;;;;;;;;;;5075132;28;20021;-73
2022/06/25 01:26:26;;;;;;;3.80;3.33;;;;;;;;;;5075052;28;20070;-72
2022/06/25 01:28:51;;;;;;;5.23;3.70;;;;;;;;;;5074743;28;20070;-72
2022/06/25 01:31:16;;;;;;;6.60;3.90;;;;;;;;;;5074711;28;20311;-72
2022/06/25 01:33:42;;;;;;;5.78;5.18;;;;;;;;;;5074965;28;20627;-72
2022/06/25 01:36:07;;;;;;;3.77;3.27;;;;;;;;;;5075057;28;20032;-73
2022/06/25 01:38:32;;;;;;;5.83;4.20;;;;;;;;;;5074764;28;20275;-73
2022/06/25 01:40:57;;;;;;;6.30;3.50;;;;;;;;;;5074574;28;20584;-73
2022/06/25 01:43:23;;;;;;;3.67;3.07;;;;;;;;;;5074577;28;20262;-73
2022/06/25 01:45:48;;;;;;;4.87;3.60;;;;;;;;;;5074571;28;20328;-73
2022/06/25 01:48:13;;;;;;;4.83;3.53;;;;;;;;;;5074710;28;20273;-73
2022/06/25 01:50:38;;;;;;;4.37;3.63;;;;;;;;;;5056566;28;20384;-72
2022/06/25 01:53:04;;;;;;;6.35;3.63;;;;;;;;;;5074356;28;20267;-73
2022/06/25 01:55:30;;;;;;;4.10;3.70;;;;;;;;;;5074325;28;20024;-73
2022/06/25 01:57:55;;;;;;;4.38;3.65;;;;;;;;;;5074439;28;20028;-73
2022/06/25 02:00:25;;;;;;;4.57;3.28;;;;;;;;;;5074070;28;20450;-72
2022/06/25 02:02:52;;;;;;;4.32;3.70;;;;;;;;;;5074210;28;20063;-73
2022/06/25 02:05:18;;;;;;;4.38;3.55;;;;;;;;;;5074359;28;20031;-73
2022/06/25 02:07:43;;;;;;;4.43;3.88;;;;;;;;;;5074213;28;20025;-73
2022/06/25 02:10:09;;;;;;;5.50;3.95;;;;;;;;;;5073989;28;20024;-72
2022/06/25 02:12:34;;;;;;;7.95;4.30;;;;;;;;;;5073971;28;20085;-73
2022/06/25 02:14:59;;;;;;;6.23;4.40;;;;;;;;;;5056028;28;20028;-72
2022/06/25 02:17:25;;;;;;;5.38;3.92;;;;;;;;;;5074076;28;20270;-73
2022/06/25 02:19:50;;;;;;;4.63;3.35;;;;;;;;;;5074020;28;20107;-73
2022/06/25 02:22:15;;;;;;;3.93;3.57;;;;;;;;;;5073989;28;20414;-72
2022/06/25 02:24:41;;;;;;;6.97;3.70;;;;;;;;;;5073831;28;20262;-72
2022/06/25 02:27:07;;;;;;;4.70;3.67;;;;;;;;;;5055460;28;20017;-72
2022/06/25 02:29:32;;;;;;;4.00;3.42;;;;;;;;;;5073636;28;20027;-73
2022/06/25 02:31:59;;;;;;;5.65;3.95;;;;;;;;;;5073603;28;20146;-73
2022/06/25 02:34:24;;;;;;;4.35;3.13;;;;;;;;;;5074009;28;20058;-73
2022/06/25 02:36:50;;;;;;;4.50;3.42;;;;;;;;;;5073709;28;20455;-72
2022/06/25 02:39:16;;;;;;;4.35;3.42;;;;;;;;;;5073586;28;20484;-74
2022/06/25 02:41:41;;;;;;;7.53;3.72;;;;;;;;;;5073725;28;20068;-71
2022/06/25 02:44:06;;;;;;;4.33;3.30;;;;;;;;;;5073784;28;20017;-72
2022/06/25 02:46:32;;;;;;;4.20;3.30;;;;;;;;;;5055653;28;20278;-73
2022/06/25 02:48:57;;;;;;;4.30;3.60;;;;;;;;;;5055644;28;20317;-73
2022/06/25 02:51:22;;;;;;;6.78;3.70;;;;;;;;;;5073635;28;20020;-73
2022/06/25 02:53:48;;;;;;;3.90;3.15;;;;;;;;;;5073541;28;20028;-74
2022/06/25 02:58:58;;;;;;;7.63;3.83;;;;;;;;;;5073605;28;20808;-72
2022/06/25 03:01:24;;;;;;;4.82;3.75;;;;;;;;;;5055345;28;20024;-73
2022/06/25 03:03:50;;;;;;;7.72;3.45;;;;;;;;;;5073447;28;20096;-73
2022/06/25 03:06:15;;;;;;;4.32;3.55;;;;;;;;;;5073433;28;20021;-74
2022/06/25 03:08:40;;;;;;;4.28;3.35;;;;;;;;;;5073263;28;20028;-73
2022/06/25 03:11:06;;;;;;;5.43;3.30;;;;;;;;;;5073439;28;20032;-73
2022/06/25 03:13:34;;;;;;;3.57;3.23;;;;;;;;;;5073310;28;20793;-72
2022/06/25 03:15:59;;;;;;;4.18;3.42;;;;;;;;;;5073364;28;20275;-74
2022/06/25 03:18:24;;;;;;;4.03;3.50;;;;;;;;;;5073440;28;20070;-72
2022/06/25 03:20:52;;;;;;;5.07;3.42;;;;;;;;;;5073556;28;20426;-72
2022/06/25 03:23:19;;;;;;;3.60;3.28;;;;;;;;;;5073265;28;20107;-73
2022/06/25 03:25:44;;;;;;;3.95;3.45;;;;;;;;;;5073368;28;20099;-73
2022/06/25 03:28:09;;;;;;;5.13;3.13;;;;;;;;;;5073067;28;20529;-73
2022/06/25 03:30:34;;;;;;;4.67;4.20;;;;;;;;;;5073360;28;20435;-72
2022/06/25 03:33:00;;;;;;;3.47;3.03;;;;;;;;;;5073185;28;20282;-73
2022/06/25 03:35:26;;;;;;;6.95;4.82;;;;;;;;;;5073010;28;20392;-74
2022/06/25 03:37:51;;;;;;;4.73;3.43;;;;;;;;;;5073473;28;20031;-74
2022/06/25 03:40:17;;;;;;;4.00;3.27;;;;;;;;;;5076530;28;20292;-73
2022/06/25 03:42:42;;;;;;;5.80;3.17;;;;;;;;;;5077145;28;20286;-73
2022/06/25 03:45:08;;;;;;;3.90;3.40;;;;;;;;;;5076900;28;20062;-72
2022/06/25 03:47:33;;;;;;;5.35;3.65;;;;;;;;;;5076902;28;20027;-74
2022/06/25 03:49:58;;;;;;;3.80;3.13;;;;;;;;;;5076762;28;20066;-72
2022/06/25 03:52:25;;;;;;;4.33;3.27;;;;;;;;;;5076641;28;20017;-74
2022/06/25 03:54:50;;;;;;;6.03;3.63;;;;;;;;;;5076779;28;20278;-73
2022/06/25 03:57:16;;;;;;;6.88;3.22;;;;;;;;;;5076616;28;20020;-72
2022/06/25 03:59:41;;;;;;;3.85;3.42;;;;;;;;;;5076672;28;20049;-73
2022/06/25 04:02:06;;;;;;;7.33;3.87;;;;;;;;;;5076938;28;20033;-74
2022/06/25 04:04:32;;;;;;;4.47;3.70;;;;;;;;;;5076380;28;20273;-74
2022/06/25 04:06:57;;;;;;;5.33;4.13;;;;;;;;;;5076656;28;20051;-72
2022/06/25 04:09:22;;;;;;;5.53;3.43;;;;;;;;;;5076275;28;20592;-72
2022/06/25 04:11:47;;;;;;;8.23;3.85;;;;;;;;;;5076260;28;20320;-73
2022/06/25 04:14:13;;;;;;;5.40;4.00;;;;;;;;;;5058565;28;20035;-72
2022/06/25 04:16:38;;;;;;;6.20;3.93;;;;;;;;;;5076291;28;20730;-73
2022/06/25 04:19:03;;;;;;;9.38;3.85;;;;;;;;;;5076564;28;20331;-73
2022/06/25 04:21:29;;;;;;;4.05;3.38;;;;;;;;;;5058331;28;20020;-73
2022/06/25 04:23:54;;;;;;;7.63;4.13;;;;;;;;;;5076082;28;20066;-73
2022/06/25 04:26:19;;;;;;;5.38;3.72;;;;;;;;;;5076167;28;20259;-73
2022/06/25 04:31:28;;;;;;;6.25;4.07;;;;;;;;;;5075861;28;20091;-73
2022/06/25 04:33:54;;;;;;;4.72;3.95;;;;;;;;;;5076051;28;20422;-74
2022/06/25 04:36:19;;;;;;;6.47;5.00;;;;;;;;;;5075978;28;20021;-73
2022/06/25 04:38:44;;;;;;;4.78;3.40;;;;;;;;;;5057841;28;20628;-73
2022/06/25 04:41:10;;;;;;;5.40;4.00;;;;;;;;;;5075767;28;20117;-73
2022/06/25 04:43:35;;;;;;;4.85;4.32;;;;;;;;;;5075989;28;20024;-74
2022/06/25 04:46:00;;;;;;;8.18;4.50;;;;;;;;;;5075581;28;20016;-72
2022/06/25 04:48:26;;;;;;;8.30;4.82;;;;;;;;;;5075624;28;20043;-73
2022/06/25 04:50:51;;;;;;;5.30;4.50;;;;;;;;;;5075162;28;20108;-74
2022/06/25 04:53:16;;;;;;;6.57;4.55;;;;;;;;;;5075652;28;20374;-72
2022/06/25 04:55:42;;;;;;;6.30;4.70;;;;;;;;;;5075535;28;20154;-73
2022/06/25 04:58:07;;;;;;;6.60;4.70;;;;;;;;;;5075388;28;20048;-73
2022/06/25 05:00:33;;;;;;;6.40;5.00;;;;;;;;;;5075445;28;20028;-73
2022/06/25 05:02:59;;;;;;;6.72;4.18;;;;;;;;;;5075212;28;20070;-74
2022/06/25 05:05:24;;;;;;;7.38;4.30;;;;;;;;;;5075170;28;20027;-72
2022/06/25 05:07:49;;;;;;;8.50;4.60;;;;;;;;;;5057055;28;20069;-73
2022/06/25 05:10:14;;;;;;;7.60;4.17;;;;;;;;;;5075181;28;20032;-73
2022/06/25 05:15:23;;;;;;;7.88;5.15;;;;;;;;;;5075452;28;20277;-73
2022/06/25 05:17:49;;;;;;;6.47;4.00;;;;;;;;;;5074991;28;20028;-73
2022/06/25 05:20:14;;;;;;;5.55;4.10;;;;;;;;;;5074654;28;20279;-73
2022/06/25 05:22:40;;;;;;;6.07;4.30;;;;;;;;;;5074996;28;20024;-74
2022/06/25 05:25:05;;;;;;;10.93;5.20;;;;;;;;;;5074862;28;20099;-73
2022/06/25 05:27:31;;;;;;;7.40;4.15;;;;;;;;;;5074694;28;20070;-74
2022/06/25 05:29:56;;;;;;;4.72;4.00;;;;;;;;;;5074570;28;20389;-74
2022/06/25 05:32:21;;;;;;;5.27;4.40;;;;;;;;;;5075621;28;20036;-72
2022/06/25 05:34:48;;;;;;;6.60;4.10;;;;;;;;;;5074530;28;20273;-73
2022/06/25 05:37:13;;;;;;;6.68;4.68;;;;;;;;;;5074483;28;20306;-73
2022/06/25 05:39:39;;;;;;;9.52;5.10;;;;;;;;;;5074172;28;20033;-72
2022/06/25 05:42:05;;;;;;;10.47;5.43;;;;;;;;;;5056295;28;20044;-74
2022/06/25 05:44:30;;;;;;;6.97;5.38;;;;;;;;;;5074359;28;20297;-72
2022/06/25 05:46:55;;;;;;;6.50;5.10;;;;;;;;;;5074588;28;20449;-73
2022/06/25 05:49:21;;;;;;;6.40;4.30;;;;;;;;;;5074299;28;20262;-72
2022/06/25 05:51:46;;;;;;;4.20;3.70;;;;;;;;;;5074244;28;20282;-74
2022/06/25 05:54:11;;;;;;;4.75;4.15;;;;;;;;;;5074319;28;20302;-73
2022/06/25 05:56:37;;;;;;;5.90;4.50;;;;;;;;;;5074070;28;20024;-72
2022/06/25 05:59:02;;;;;;;5.67;4.13;;;;;;;;;;5056396;28;20025;-73
2022/06/25 06:01:27;;;;;;;6.33;4.17;;;;;;;;;;5073341;28;20812;-73
2022/06/25 06:03:52;;;;;;;6.68;4.65;;;;;;;;;;5073829;28;20290;-72
2022/06/25 06:06:18;;;;;;;7.73;4.50;;;;;;;;;;5074344;28;20031;-72
2022/06/25 06:08:43;;;;;;;6.23;3.97;;;;;;;;;;5074137;28;20271;-73
2022/06/25 06:11:08;;;;;;;5.40;4.07;;;;;;;;;;5073858;28;20726;-72
2022/06/25 06:13:33;;;;;;;4.63;4.05;;;;;;;;;;5055846;28;20028;-73
2022/06/25 06:15:59;;;;;;;4.37;3.87;;;;;;;;;;5073693;28;20032;-72
2022/06/25 06:18:24;;;;;;;7.23;3.97;;;;;;;;;;5073582;28;20738;-72
2022/06/25 06:20:49;;;;;;;7.70;4.90;;;;;;;;;;5073918;28;20119;-72
2022/06/25 06:23:14;;;;;;;5.17;3.93;;;;;;;;;;5074142;28;20024;-73
2022/06/25 06:25:40;;;;;;;4.10;2.90;;;;;;;;;;5073965;28;20765;-72
2022/06/25 06:28:05;;;;;;;5.50;3.28;;;;;;;;;;5073796;28;20274;-73
2022/06/25 06:30:30;;;;;;;3.23;2.80;;;;;;;;;;5073442;28;20098;-72
2022/06/25 06:32:55;;;;;;;3.13;2.83;;;;;;;;;;5073432;28;20070;-73
2022/06/25 06:35:21;;;;;;;3.90;3.10;;;;;;;;;;5073762;28;20306;-73
2022/06/25 06:37:46;;;;;;;4.23;2.67;;;;;;;;;;5073817;28;20074;-71
2022/06/25 06:40:11;;;;;;;4.57;2.60;;;;;;;;;;5055419;28;20025;-73
2022/06/25 06:42:37;;;;;;;3.88;2.03;;;;;;;;;;5073626;28;20282;-72
2022/06/25 06:45:02;;;;;;;5.30;2.40;;;;;;;;;;5073699;28;20017;-71
2022/06/25 06:47:28;;;;;;;2.13;1.98;;;;;;;;;;5055384;28;20393;-72
2022/06/25 06:49:53;;;;;;;4.30;1.80;;;;;;;;;;5073227;28;20028;-73
2022/06/25 06:52:19;;;;;;;2.47;2.17;;;;;;;;;;5073508;28;20024;-72
2022/06/25 06:54:44;;;;;;;3.08;2.28;;;;;;;;;;5073623;28;20025;-72
2022/06/25 06:57:09;;;;;;;2.50;1.90;;;;;;;;;;5073633;28;20031;-71
2022/06/25 06:59:35;;;;;;;3.07;1.90;;;;;;;;;;5055724;28;20020;-73
2022/06/25 07:02:00;;;;;;;3.53;2.25;;;;;;;;;;5073409;28;20099;-73
2022/06/25 07:04:25;;;;;;;3.47;2.23;;;;;;;;;;5073123;28;20457;-72
2022/06/25 07:06:50;;;;;;;2.17;1.90;;;;;;;;;;5073330;28;20048;-72
2022/06/25 07:09:16;;;;;;;2.17;1.67;;;;;;;;;;5073185;28;20416;-71
2022/06/25 07:11:41;;;;;;;4.10;2.00;;;;;;;;;;5073545;28;20066;-72
2022/06/25 07:14:06;;;;;;;2.37;1.97;;;;;;;;;;5076935;28;20402;-73
2022/06/25 07:16:32;;;;;;;6.30;3.40;;;;;;;;;;5077667;28;20039;-72
2022/06/25 07:18:58;;;;;;;2.97;2.67;;;;;;;;;;5077919;28;20013;-72
2022/06/25 07:21:24;;;;;;;3.92;2.28;;;;;;;;;;5077419;28;20397;-72
2022/06/25 07:23:50;;;;;;;9.90;3.67;;;;;;;;;;5077096;28;20442;-71
2022/06/25 07:26:15;;;;;;;5.75;2.05;;;;;;;;;;5077171;28;20017;-72
2022/06/25 07:28:40;;;;;;;3.70;2.07;;;;;;;;;;5077183;28;20082;-72
2022/06/25 07:31:05;;;;;;;4.60;2.37;;;;;;;;;;5076869;28;20485;-72
2022/06/25 07:33:31;;;;;;;2.63;1.52;;;;;;;;;;5076732;28;20020;-72
2022/06/25 07:35:57;;;;;;;2.92;1.77;;;;;;;;;;5077053;28;20024;-72
2022/06/25 07:38:22;;;;;;;6.65;1.45;;;;;;;;;;5076841;28;20123;-71
2022/06/25 07:40:47;;;;;;;2.03;1.60;;;;;;;;;;5076764;28;20111;-72
2022/06/25 07:43:13;;;;;;;1.93;1.40;;;;;;;;;;5076772;28;20028;-72
2022/06/25 07:45:38;;;;;;;1.40;1.23;;;;;;;;;;5077077;28;20108;-72
2022/06/25 07:48:03;;;;;;;2.47;1.60;;;;;;;;;;5076691;28;20271;-72
2022/06/25 07:53:12;;;;;;;4.20;1.60;;;;;;;;;;5076822;28;20039;-71
2022/06/25 07:55:38;;;;;;;3.43;1.27;;;;;;;;;;5076755;28;20448;-72
2022/06/25 07:58:03;;;;;;;2.78;1.75;;;;;;;;;;5076672;28;20032;-74
2022/06/25 08:00:28;;;;;;;2.23;1.70;;;;;;;;;;5076262;28;20069;-72
2022/06/25 08:02:53;;;;;;;1.70;1.60;;;;;;;;;;5076419;28;20368;-72
2022/06/25 08:05:19;;;;;;;3.63;1.40;;;;;;;;;;5058525;28;20263;-72
2022/06/25 08:07:46;;;;;;;1.67;1.53;;;;;;;;;;5076346;28;20020;-72
2022/06/25 08:10:11;;;;;;;2.35;1.80;;;;;;;;;;5076296;28;20099;-72
2022/06/25 08:12:36;;;;;;;1.60;1.20;;;;;;;;;;5058485;28;20068;-72
2022/06/25 08:15:01;;;;;;;4.07;2.63;;;;;;;;;;5076019;28;20021;-71
2022/06/25 08:17:27;;;;;;;4.03;1.80;;;;;;;;;;5075989;28;20270;-72
2022/06/25 08:19:52;;;;;;;2.03;1.80;;;;;;;;;;5076014;28;20266;-71
2022/06/25 08:22:17;;;;;;;1.60;1.40;;;;;;;;;;5076219;28;20521;-71
2022/06/25 08:24:42;;;;;;;1.60;1.50;;;;;;;;;;5075586;28;20020;-72
2022/06/25 08:27:10;;;;;;;2.57;1.50;;;;;;;;;;5076010;28;20028;-72
2022/06/25 08:29:35;;;;;;;1.85;1.50;;;;;;;;;;5075801;28;20063;-73
2022/06/25 08:32:00;;;;;;;1.30;1.20;;;;;;;;;;5075670;28;20511;-72
2022/06/25 08:34:26;;;;;;;3.83;2.00;;;;;;;;;;5075833;28;20487;-72
2022/06/25 08:36:51;;;;;;;4.97;1.80;;;;;;;;;;5075955;28;20035;-71
2022/06/25 08:39:16;;;;;;;2.27;2.07;;;;;;;;;;5075972;28;20024;-73
2022/06/25 08:41:42;;;;;;;2.90;1.90;;;;;;;;;;5075690;28;20031;-72
2022/06/25 08:44:07;;;;;;;2.40;1.75;;;;;;;;;;5075613;28;20103;-72
2022/06/25 08:46:34;;;;;;;2.90;1.73;;;;;;;;;;5075606;28;20027;-72
2022/06/25 08:49:00;;;;;;;2.78;1.70;;;;;;;;;;5075676;28;20108;-71
2022/06/25 08:51:28;;;;;;;1.88;1.77;;;;;;;;;;5075662;28;20020;-72
2022/06/25 08:53:54;;;;;;;2.25;2.05;;;;;;;;;;5075642;28;20044;-72
2022/06/25 08:56:19;;;;;;;2.45;2.10;;;;;;;;;;5075396;28;20032;-72
2022/06/25 08:58:44;;;;;;;2.77;2.03;;;;;;;;;;5075285;28;20024;-72
2022/06/25 09:01:10;;;;;;;2.43;2.10;;;;;;;;;;5057290;28;20469;-72
2022/06/25 09:03:35;;;;;;;3.03;2.72;;;;;;;;;;5075514;28;20024;-72
2022/06/25 09:06:17;;;;;;;2.13;1.98;;;;;;;;;;5075521;28;20028;-71
2022/06/25 09:08:43;;;;;;;2.58;2.38;;;;;;;;;;5075283;28;20021;-73
2022/06/25 09:11:08;;;;;;;2.88;2.22;;;;;;;;;;5075168;28;20024;-71
2022/06/25 09:13:33;;;;;;;4.80;2.25;;;;;;;;;;5075021;28;20017;-72
2022/06/25 09:15:58;;;;;;;2.20;2.00;;;;;;;;;;5075247;28;20029;-72
2022/06/25 09:18:24;;;;;;;2.97;2.13;;;;;;;;;;5075240;28;20028;-73
2022/06/25 09:21:02;;;;;;;3.27;2.40;;;;;;;;;;5074872;28;20755;-71
2022/06/25 09:23:32;;;;;;;3.50;2.25;;;;;;;;;;5075022;28;20029;-73
2022/06/25 09:26:07;;;;;;;3.95;2.40;;;;;;;;;;5074879;28;20012;-71
2022/06/25 09:28:44;;;;;;;3.30;3.00;;;;;;;;;;5074776;28;20522;-72
2022/06/25 09:31:09;;;;;;;3.15;2.40;;;;;;;;;;5074666;28;20052;-72
2022/06/25 09:33:36;;;;;;;4.50;2.83;;;;;;;;;;5074769;28;20027;-72
2022/06/25 09:36:02;;;;;;;6.50;2.83;;;;;;;;;;5073814;28;20032;-72
2022/06/25 09:38:27;;;;;;;2.40;2.20;;;;;;;;;;5074590;28;20028;-72
2022/06/25 09:40:54;;;;;;;2.80;2.55;;;;;;;;;;5074559;28;20299;-72
2022/06/25 09:43:24;;;;;;;3.35;3.05;;;;;;;;;;5074497;28;20028;-72
2022/06/25 09:45:53;;;;;;;3.78;3.00;;;;;;;;;;5074692;28;20358;-73
2022/06/25 09:48:25;;;;;;;5.10;2.88;;;;;;;;;;5074666;28;20024;-72
2022/06/25 09:51:09;;;;;;;2.67;2.47;;;;;;;;;;5074411;28;20058;-72
2022/06/25 09:53:36;;;;;;;2.70;2.50;;;;;;;;;;5074717;28;20099;-72
2022/06/25 09:56:02;;;;;;;3.80;2.53;;;;;;;;;;5074385;28;20583;-72
2022/06/25 09:58:27;;;;;;;3.72;2.63;;;;;;;;;;5074638;28;20044;-72
2022/06/25 10:00:53;;;;;;;2.65;2.45;;;;;;;;;;5074302;28;20445;-72
2022/06/25 10:03:20;;;;;;;3.63;2.80;;;;;;;;;;5074338;28;20021;-72
2022/06/25 10:05:46;;;;;;;4.32;2.72;;;;;;;;;;5074361;28;20020;-72
2022/06/25 10:08:13;;;;;;;3.58;2.90;;;;;;;;;;5074555;28;20024;-72
2022/06/25 10:10:42;;;;;;;3.22;2.90;;;;;;;;;;5074485;28;20035;-71
2022/06/25 10:13:08;;;;;;;5.82;3.05;;;;;;;;;;5074214;28;20032;-72
2022/06/25 10:15:33;;;;;;;3.58;3.20;;;;;;;;;;5074070;28;20029;-72
2022/06/25 10:18:03;;;;;;;3.85;3.45;;;;;;;;;;5073779;28;20024;-72
2022/06/25 10:20:28;;;;;;;3.97;3.13;;;;;;;;;;5074334;28;20078;-72
2022/06/25 10:22:54;;;;;;;5.25;2.97;;;;;;;;;;5073929;28;20028;-71
2022/06/25 10:25:21;;;;;;;4.13;2.72;;;;;;;;;;5073984;28;20100;-71
2022/06/25 10:27:47;;;;;;;3.28;2.97;;;;;;;;;;5055991;28;20043;-73
2022/06/25 10:30:14;;;;;;;5.57;2.92;;;;;;;;;;5073787;28;20072;-72
2022/06/25 10:32:57;;;;;;;3.13;2.92;;;;;;;;;;5073629;28;20032;-72
2022/06/25 10:35:27;;;;;;;4.05;3.10;;;;;;;;;;5074014;28;20428;-73
2022/06/25 10:38:04;;;;;;;4.93;4.00;;;;;;;;;;5073676;28;20041;-72
2022/06/25 10:40:34;;;;;;;5.32;3.10;;;;;;;;;;5073775;28;20036;-72
2022/06/25 10:43:03;;;;;;;3.97;3.55;;;;;;;;;;5055673;28;20099;-72
2022/06/25 10:45:32;;;;;;;3.67;3.35;;;;;;;;;;5073472;28;20107;-72
2022/06/25 10:47:57;;;;;;;3.58;3.20;;;;;;;;;;5073380;28;20558;-71
2022/06/25 10:50:23;;;;;;;3.47;3.17;;;;;;;;;;5073565;28;20044;-72
2022/06/25 10:53:03;;;;;;;4.60;2.90;;;;;;;;;;5073641;28;20081;-73
2022/06/25 10:55:28;;;;;;;3.05;2.83;;;;;;;;;;5073425;28;20025;-74
2022/06/25 10:58:13;;;;;;;3.37;3.10;;;;;;;;;;5073331;28;20079;-71
2022/06/25 11:00:45;;;;;;;2.88;2.38;;;;;;;;;;5073333;28;20032;-71
2022/06/25 11:03:10;;;;;;;2.75;2.55;;;;;;;;;;5073395;28;20012;-72
2022/06/25 11:05:42;;;;;;;3.80;3.50;;;;;;;;;;5073229;28;20438;-72
2022/06/25 11:08:07;;;;;;;3.60;3.00;;;;;;;;;;5073197;28;20407;-72
2022/06/25 11:10:36;;;;;;;3.33;2.78;;;;;;;;;;5073279;28;20494;-71
2022/06/25 11:13:03;;;;;;;3.10;2.90;;;;;;;;;;5073297;28;20025;-72
2022/06/25 11:15:48;;;;;;;3.45;3.15;;;;;;;;;;5055572;28;20035;-72
2022/06/25 11:18:14;;;;;;;4.32;3.67;;;;;;;;;;5072446;28;20068;-71
2022/06/25 11:20:40;;;;;;;3.25;2.95;;;;;;;;;;5072850;28;20055;-72
2022/06/25 11:23:09;;;;;;;3.35;3.05;;;;;;;;;;5072974;28;20048;-73
2022/06/25 11:28:47;;;;;;;3.50;3.10;;;;;;;;;;5073147;28;20431;-72
2022/06/25 11:31:13;;;;;;;3.28;3.05;;;;;;;;;;5072832;28;20098;-72
2022/06/25 11:33:40;;;;;;;5.18;3.28;;;;;;;;;;5073054;28;20029;-72
2022/06/25 11:36:12;;;;;;;5.22;3.60;;;;;;;;;;5073052;28;20027;-72
2022/06/25 11:38:39;;;;;;;4.72;3.05;;;;;;;;;;5073111;28;20032;-73
2022/06/25 11:41:04;;;;;;;4.90;3.20;;;;;;;;;;5072911;28;20052;-73
2022/06/25 11:43:30;;;;;;;3.93;3.13;;;;;;;;;;5072960;28;20017;-73
2022/06/25 11:45:57;;;;;;;4.35;3.35;;;;;;;;;;5072760;28;20419;-71
2022/06/25 11:48:26;;;;;;;3.80;2.85;;;;;;;;;;5054736;28;20020;-72
2022/06/25 11:50:54;;;;;;;2.90;2.67;;;;;;;;;;5072495;28;20081;-73
2022/06/25 11:53:20;;;;;;;3.67;3.05;;;;;;;;;;5054894;28;20028;-72
2022/06/25 11:55:58;;;;;;;4.75;3.25;;;;;;;;;;5072787;28;20035;-72
2022/06/25 11:58:26;;;;;;;3.30;2.97;;;;;;;;;;5072950;28;20032;-73
2022/06/25 12:00:54;;;;;;;2.88;2.65;;;;;;;;;;5075523;28;20033;-72
2022/06/25 12:03:22;;;;;;;4.20;2.72;;;;;;;;;;5076436;28;20033;-72
2022/06/25 12:05:48;;;;;;;3.90;3.35;;;;;;;;;;5076303;28;20575;-72
2022/06/25 12:08:14;;;;;;;3.65;3.35;;;;;;;;;;5076195;28;20111;-73
2022/06/25 12:10:42;;;;;;;3.13;2.80;;;;;;;;;;5076464;28;20385;-73
2022/06/25 12:13:07;;;;;;;3.60;3.30;;;;;;;;;;5076560;28;20533;-73
2022/06/25 12:15:33;;;;;;;3.38;3.08;;;;;;;;;;5076427;28;20146;-73
2022/06/25 12:18:02;;;;;;;3.13;2.75;;;;;;;;;;5076453;28;20037;-72
2022/06/25 12:20:28;;;;;;;4.78;3.00;;;;;;;;;;5076043;28;20021;-73
2022/06/25 12:22:56;;;;;;;3.23;2.77;;;;;;;;;;5076181;28;20362;-73
2022/06/25 12:25:24;;;;;;;4.82;3.58;;;;;;;;;;5075892;28;20271;-71
2022/06/25 12:27:50;;;;;;;3.45;2.85;;;;;;;;;;5076195;28;20024;-73
2022/06/25 12:30:22;;;;;;;2.97;2.78;;;;;;;;;;5075939;28;20147;-73
2022/06/25 12:32:47;;;;;;;4.40;2.90;;;;;;;;;;5075953;28;20361;-72
2022/06/25 12:35:20;;;;;;;3.03;2.72;;;;;;;;;;5076083;28;20024;-73
2022/06/25 12:38:04;;;;;;;4.03;2.75;;;;;;;;;;5058073;28;20032;-73
2022/06/25 12:40:30;;;;;;;2.67;2.47;;;;;;;;;;5075776;28;20039;-73
2022/06/25 12:42:59;;;;;;;10.23;3.55;;;;;;;;;;5075931;28;20078;-72
2022/06/25 12:45:25;;;;;;;4.35;3.70;;;;;;;;;;5075907;28;20101;-73
2022/06/25 12:47:50;;;;;;;2.80;2.38;;;;;;;;;;5075593;28;20025;-71
2022/06/25 12:50:29;;;;;;;2.75;2.38;;;;;;;;;;5075577;28;20020;-71
2022/06/25 12:52:55;;;;;;;3.25;2.58;;;;;;;;;;5076047;28;20024;-71
2022/06/25 12:55:24;;;;;;;2.85;2.65;;;;;;;;;;5057417;28;20016;-71
2022/06/25 12:57:49;;;;;;;4.53;2.55;;;;;;;;;;5075675;28;20024;-72
2022/06/25 13:00:18;;;;;;;2.40;2.20;;;;;;;;;;5057314;28;20021;-72
2022/06/25 13:02:43;;;;;;;2.60;2.38;;;;;;;;;;5075310;28;20028;-72
2022/06/25 13:05:08;;;;;;;3.05;2.63;;;;;;;;;;5075326;28;20350;-71
2022/06/25 13:07:34;;;;;;;6.17;2.83;;;;;;;;;;5075321;28;20024;-72
2022/06/25 13:09:59;;;;;;;3.47;2.33;;;;;;;;;;5075107;28;20293;-72
2022/06/25 13:12:25;;;;;;;3.47;2.63;;;;;;;;;;5075387;28;20271;-72
2022/06/25 13:14:50;;;;;;;2.80;2.60;;;;;;;;;;5075187;28;20021;-72
2022/06/25 13:17:16;;;;;;;3.37;2.23;;;;;;;;;;5074999;28;20025;-72
2022/06/25 13:19:41;;;;;;;2.90;2.60;;;;;;;;;;5075382;28;20017;-72
2022/06/25 13:22:06;;;;;;;4.95;2.50;;;;;;;;;;5075027;28;20286;-72
2022/06/25 13:24:32;;;;;;;3.85;2.97;;;;;;;;;;5074964;28;20025;-73
2022/06/25 13:26:58;;;;;;;3.25;2.80;;;;;;;;;;5057193;28;20454;-72
2022/06/25 13:29:24;;;;;;;3.45;2.92;;;;;;;;;;5074789;28;20021;-72
2022/06/25 13:31:50;;;;;;;2.80;2.60;;;;;;;;;;5074543;28;20063;-72
2022/06/25 13:34:15;;;;;;;3.50;3.20;;;;;;;;;;5074735;28;20024;-73
2022/06/25 13:36:40;;;;;;;3.30;3.00;;;;;;;;;;5056771;28;20052;-72
2022/06/25 13:39:06;;;;;;;3.33;3.03;;;;;;;;;;5074766;28;20279;-73
2022/06/25 13:41:32;;;;;;;3.00;2.80;;;;;;;;;;5056762;28;20060;-71
2022/06/25 13:43:58;;;;;;;2.83;2.63;;;;;;;;;;5074518;28;20055;-72
2022/06/25 13:46:24;;;;;;;3.22;2.70;;;;;;;;;;5074673;28;20100;-71
2022/06/25 13:48:49;;;;;;;3.55;3.05;;;;;;;;;;5074493;28;20391;-73
2022/06/25 13:51:15;;;;;;;2.90;2.65;;;;;;;;;;5074475;28;20100;-71
2022/06/25 13:53:41;;;;;;;3.42;2.97;;;;;;;;;;5074361;28;20461;-72
2022/06/25 13:56:06;;;;;;;4.13;2.72;;;;;;;;;;5074371;28;20107;-72
2022/06/25 13:58:31;;;;;;;2.88;2.67;;;;;;;;;;5074544;28;20027;-71
2022/06/25 14:00:57;;;;;;;3.90;2.83;;;;;;;;;;5074008;28;20064;-71
2022/06/25 14:03:23;;;;;;;5.32;2.97;;;;;;;;;;5074450;28;20020;-72
2022/06/25 14:05:48;;;;;;;4.47;2.60;;;;;;;;;;5074163;28;20020;-71
2022/06/25 14:08:14;;;;;;;3.20;2.90;;;;;;;;;;5074565;28;20021;-73
2022/06/25 14:10:39;;;;;;;4.10;3.37;;;;;;;;;;5074170;28;20381;-72
2022/06/25 14:13:04;;;;;;;4.28;2.97;;;;;;;;;;5056153;28;20361;-71
2022/06/25 14:15:29;;;;;;;4.73;2.77;;;;;;;;;;5074262;28;20103;-72
2022/06/25 14:17:55;;;;;;;2.50;2.30;;;;;;;;;;5073901;28;20275;-71
2022/06/25 14:20:21;;;;;;;4.07;2.63;;;;;;;;;;5055843;28;20111;-72
2022/06/25 14:22:46;;;;;;;3.25;2.58;;;;;;;;;;5055448;28;20020;-72
2022/06/25 14:25:20;;;;;;;7.53;2.92;;;;;;;;;;5074152;28;20376;-72
2022/06/25 14:27:46;;;;;;;2.65;2.25;;;;;;;;;;5073842;28;20031;-72
2022/06/25 14:30:11;;;;;;;3.80;2.63;;;;;;;;;;5073555;28;20408;-72
2022/06/25 14:32:37;;;;;;;2.40;2.20;;;;;;;;;;5073753;28;20013;-71
2022/06/25 14:35:02;;;;;;;3.88;2.70;;;;;;;;;;5073938;28;20070;-72
2022/06/25 14:42:55;;;;;;;2.95;2.25;;;;;;;;;;5074143;28;20089;-72
2022/06/25 14:45:21;;;;;;;3.53;2.20;;;;;;;;;;5073875;28;20028;-72
2022/06/25 14:47:46;;;;;;;2.60;2.37;;;;;;;;;;5073958;28;20273;-73
2022/06/25 14:50:11;;;;;;;4.10;2.20;;;;;;;;;;5055850;28;20022;-72
2022/06/25 14:52:36;;;;;;;3.73;2.30;;;;;;;;;;5073574;28;20454;-71
2022/06/25 14:55:02;;;;;;;3.60;2.37;;;;;;;;;;5073491;28;20263;-73
2022/06/25 14:57:28;;;;;;;3.33;2.40;;;;;;;;;;5073497;28;20623;-73